createdAt,value
2023-03-17T00:00:11.052Z,3.52
2023-03-17T00:03:23.546Z,2.50
2023-03-17T00:06:30.055Z,2.99
2023-03-17T00:09:34.557Z,1.72
2023-03-17T00:12:38.402Z,2.30
2023-03-17T00:15:42.033Z,2.53
2023-03-17T00:18:46.532Z,2.09
2023-03-17T00:21:50.600Z,2.01
2023-03-17T00:24:54.246Z,2.64
2023-03-17T00:27:59.155Z,2.67
2023-03-17T00:31:12.839Z,2.53
2023-03-17T00:34:18.151Z,2.77
2023-03-17T00:37:23.860Z,4.68
2023-03-17T00:40:30.345Z,6.28
2023-03-17T00:43:34.755Z,6.29
2023-03-17T00:46:39.051Z,6.39
2023-03-17T00:49:50.085Z,5.56
2023-03-17T00:52:54.974Z,6.16
2023-03-17T00:55:58.548Z,6.27
2023-03-17T00:59:02.324Z,6.28
2023-03-17T01:02:06.295Z,6.81
2023-03-17T01:05:11.438Z,7.63
2023-03-17T01:08:15.627Z,7.65
2023-03-17T01:11:20.660Z,7.05
2023-03-17T01:14:25.434Z,8.06
2023-03-17T01:17:29.908Z,8.78
2023-03-17T01:20:33.975Z,8.55
2023-03-17T01:23:38.221Z,8.06
2023-03-17T01:26:42.255Z,8.72
2023-03-17T01:29:45.882Z,7.75
2023-03-17T01:32:50.672Z,8.59
2023-03-17T01:35:54.790Z,10.05
2023-03-17T01:38:59.507Z,9.44
2023-03-17T01:42:03.207Z,9.64
2023-03-17T01:45:08.755Z,8.51
2023-03-17T01:48:12.621Z,9.36
2023-03-17T01:51:23.872Z,9.10
2023-03-17T01:54:31.855Z,7.72
2023-03-17T01:57:51.541Z,7.92
2023-03-17T02:00:56.349Z,7.86
2023-03-17T02:04:00.394Z,8.06
2023-03-17T02:07:05.994Z,6.89
2023-03-17T02:10:10.559Z,5.98
2023-03-17T02:13:15.993Z,7.00
2023-03-17T02:16:19.385Z,5.54
2023-03-17T02:19:24.043Z,6.84
2023-03-17T02:22:28.758Z,7.41
2023-03-17T02:25:32.429Z,6.82
2023-03-17T02:28:36.266Z,6.14
2023-03-17T02:31:39.675Z,7.45
2023-03-17T02:34:44.308Z,6.50
2023-03-17T02:37:47.854Z,6.01
2023-03-17T02:40:51.248Z,5.52
2023-03-17T02:43:55.638Z,5.98
2023-03-17T02:46:59.252Z,6.95
2023-03-17T02:50:03.090Z,6.29
2023-03-17T02:53:06.407Z,5.40
2023-03-17T02:56:10.875Z,5.70
2023-03-17T02:59:14.514Z,5.25
2023-03-17T03:02:17.980Z,5.35
2023-03-17T03:05:21.916Z,5.05
2023-03-17T03:08:26.180Z,4.96
2023-03-17T03:11:30.224Z,3.98
2023-03-17T03:14:34.352Z,4.70
2023-03-17T03:17:38.604Z,4.39
2023-03-17T03:20:45.856Z,3.82
2023-03-17T03:23:49.699Z,3.41
2023-03-17T03:26:53.321Z,4.22
2023-03-17T03:29:56.731Z,3.61
2023-03-17T03:33:00.245Z,3.91
2023-03-17T03:36:06.653Z,3.40
2023-03-17T03:39:14.205Z,4.13
2023-03-17T03:42:18.975Z,3.69
2023-03-17T03:45:22.972Z,4.91
2023-03-17T03:48:27.413Z,4.92
2023-03-17T03:51:31.349Z,4.34
2023-03-17T03:54:35.688Z,3.96
2023-03-17T03:57:39.257Z,2.99
2023-03-17T04:00:43.382Z,3.20
2023-03-17T04:03:48.003Z,4.74
2023-03-17T04:06:51.411Z,4.14
2023-03-17T04:09:55.398Z,4.62
2023-03-17T04:12:59.595Z,4.87
2023-03-17T04:16:04.106Z,3.56
2023-03-17T04:19:09.923Z,4.37
2023-03-17T04:22:14.312Z,3.68
2023-03-17T04:25:18.864Z,3.12
2023-03-17T04:28:23.208Z,2.99
2023-03-17T04:31:27.163Z,3.82
2023-03-17T04:34:31.552Z,3.42
2023-03-17T04:37:35.556Z,4.08
2023-03-17T04:40:39.988Z,3.96
2023-03-17T04:43:43.615Z,3.37
2023-03-17T04:46:48.023Z,3.85
2023-03-17T04:49:51.661Z,3.51
2023-03-17T04:52:55.868Z,3.55
2023-03-17T04:56:00.256Z,3.13
2023-03-17T04:59:04.996Z,3.08
2023-03-17T05:02:12.198Z,2.63
2023-03-17T05:05:16.432Z,2.82
2023-03-17T05:08:21.018Z,2.58
2023-03-17T05:11:27.871Z,2.91
2023-03-17T05:14:31.591Z,2.88
2023-03-17T05:17:35.091Z,2.77
2023-03-17T05:20:38.453Z,2.45
2023-03-17T05:23:42.538Z,1.81
2023-03-17T05:26:46.307Z,2.73
2023-03-17T05:29:50.632Z,3.04
2023-03-17T05:32:54.905Z,3.14
2023-03-17T05:35:59.328Z,2.43
2023-03-17T05:39:03.300Z,3.21
2023-03-17T05:42:07.208Z,3.65
2023-03-17T05:45:11.413Z,3.66
2023-03-17T05:48:15.441Z,2.89
2023-03-17T05:51:19.676Z,2.97
2023-03-17T05:54:23.683Z,3.26
2023-03-17T05:57:27.176Z,3.06
2023-03-17T06:00:31.992Z,2.94
2023-03-17T06:03:38.996Z,3.35
2023-03-17T06:06:42.356Z,2.75
2023-03-17T06:09:46.439Z,1.96
2023-03-17T06:12:49.971Z,2.54
2023-03-17T06:15:53.686Z,2.68
2023-03-17T06:18:57.489Z,2.36
2023-03-17T06:22:01.333Z,2.58
2023-03-17T06:25:05.852Z,2.57
2023-03-17T06:28:09.409Z,2.17
2023-03-17T06:31:13.092Z,2.88
2023-03-17T06:34:20.547Z,3.32
2023-03-17T06:37:24.095Z,2.30
2023-03-17T06:40:27.593Z,2.48
2023-03-17T06:43:32.180Z,2.40
2023-03-17T06:46:36.128Z,2.77
2023-03-17T06:49:39.492Z,3.28
2023-03-17T06:52:43.335Z,2.63
2023-03-17T06:55:49.021Z,3.04
2023-03-17T06:58:53.428Z,3.11
2023-03-17T07:01:58.553Z,2.68
2023-03-17T07:05:03.124Z,3.04
2023-03-17T07:08:09.012Z,2.71
2023-03-17T07:11:13.362Z,2.69
2023-03-17T07:14:17.456Z,1.92
2023-03-17T07:17:21.477Z,2.28
2023-03-17T07:20:25.536Z,1.90
2023-03-17T07:23:30.431Z,2.48
2023-03-17T07:26:34.955Z,2.63
2023-03-17T07:29:38.514Z,2.02
2023-03-17T07:32:42.558Z,1.76
2023-03-17T07:35:46.357Z,1.94
2023-03-17T07:38:49.974Z,2.22
2023-03-17T07:41:55.977Z,2.42
2023-03-17T07:44:59.987Z,2.33
2023-03-17T07:48:07.248Z,2.04
2023-03-17T07:51:15.066Z,1.80
2023-03-17T07:54:19.670Z,1.98
2023-03-17T07:57:23.806Z,1.88
2023-03-17T08:00:28.867Z,1.94
2023-03-17T08:03:33.244Z,2.12
2023-03-17T08:06:38.028Z,1.79
2023-03-17T08:09:41.892Z,1.63
2023-03-17T08:12:46.428Z,1.95
2023-03-17T08:15:50.670Z,1.67
2023-03-17T08:18:54.305Z,1.53
2023-03-17T08:21:58.899Z,1.40
2023-03-17T08:25:05.232Z,1.41
2023-03-17T08:28:08.658Z,1.20
2023-03-17T08:31:14.215Z,0.87
2023-03-17T08:34:18.101Z,0.32
2023-03-17T08:37:23.259Z,0.55
2023-03-17T08:40:27.233Z,0.54
2023-03-17T08:43:32.113Z,0.28
2023-03-17T08:46:36.588Z,-0.14
2023-03-17T08:49:40.119Z,-0.05
2023-03-17T08:52:43.725Z,-0.26
2023-03-17T08:55:47.951Z,-0.20
2023-03-17T08:58:52.698Z,-0.05
2023-03-17T09:02:06.274Z,-0.46
2023-03-17T09:05:14.725Z,-0.48
2023-03-17T09:08:18.764Z,-0.62
2023-03-17T09:11:24.384Z,-0.58
2023-03-17T09:14:37.327Z,-0.50
2023-03-17T09:17:46.690Z,-0.61
2023-03-17T09:20:50.861Z,-0.66
2023-03-17T09:23:55.018Z,-0.39
2023-03-17T09:27:00.844Z,-0.53
2023-03-17T09:30:05.989Z,-0.55
2023-03-17T09:33:16.495Z,-0.50
2023-03-17T09:36:21.246Z,-0.70
2023-03-17T09:39:25.281Z,-0.57
2023-03-17T09:42:34.246Z,-0.56
2023-03-17T09:45:41.671Z,-0.40
2023-03-17T09:49:01.172Z,-0.31
2023-03-17T09:52:05.288Z,-0.39
2023-03-17T09:55:13.923Z,-0.42
2023-03-17T09:58:22.832Z,-0.66
2023-03-17T10:01:27.328Z,-0.62
2023-03-17T10:04:31.866Z,-0.44
2023-03-17T10:07:42.770Z,-0.44
2023-03-17T10:10:52.968Z,-0.66
2023-03-17T10:14:06.384Z,-0.72
2023-03-17T10:17:24.317Z,-0.71
2023-03-17T10:20:37.244Z,-0.71
2023-03-17T10:23:41.412Z,-0.61
2023-03-17T10:26:51.154Z,-0.54
2023-03-17T10:29:55.125Z,-0.73
2023-03-17T10:33:01.018Z,-1.04
2023-03-17T10:36:11.701Z,-0.76
2023-03-17T10:39:18.543Z,-0.79
2023-03-17T10:42:24.656Z,-0.81
2023-03-17T10:45:30.899Z,-0.65
2023-03-17T10:48:39.373Z,-1.04
2023-03-17T10:51:47.179Z,-1.47
2023-03-17T10:54:54.219Z,-1.50
2023-03-17T10:58:08.996Z,-1.72
2023-03-17T11:01:22.125Z,-1.81
2023-03-17T11:04:33.182Z,-1.77
2023-03-17T11:07:39.521Z,-1.75
2023-03-17T11:10:43.968Z,-1.33
2023-03-17T11:13:48.009Z,-1.25
2023-03-17T11:17:00.044Z,-1.17
2023-03-17T11:20:16.248Z,-1.11
2023-03-17T11:23:24.473Z,-1.39
2023-03-17T11:26:31.271Z,-1.10
2023-03-17T11:29:50.231Z,-1.39
2023-03-17T11:33:02.538Z,-1.49
2023-03-17T11:36:10.145Z,-1.23
2023-03-17T11:39:18.010Z,-0.93
2023-03-17T11:42:42.250Z,-0.86
2023-03-17T11:45:51.520Z,-0.98
2023-03-17T11:49:04.755Z,-1.03
2023-03-17T11:52:18.224Z,-0.97
2023-03-17T11:55:46.478Z,-1.02
2023-03-17T11:59:07.812Z,-0.93
2023-03-17T12:02:30.644Z,-1.12
2023-03-17T12:05:35.201Z,-1.34
2023-03-17T12:08:46.672Z,-1.29
2023-03-17T12:11:51.528Z,-1.36
2023-03-17T12:14:57.562Z,-1.24
2023-03-17T12:18:13.056Z,-1.36
2023-03-17T12:21:33.625Z,-1.28
2023-03-17T12:24:44.394Z,-1.15
2023-03-17T12:27:54.014Z,-1.08
2023-03-17T12:31:08.917Z,-1.08
2023-03-17T12:34:51.850Z,-1.41
2023-03-17T12:38:16.832Z,-1.11
2023-03-17T12:41:23.468Z,-1.20
2023-03-17T12:44:35.202Z,-1.24
2023-03-17T12:47:57.575Z,-1.33
2023-03-17T12:51:10.717Z,-1.28
2023-03-17T12:54:22.481Z,-1.12
2023-03-17T12:57:31.603Z,-0.81
2023-03-17T13:00:49.903Z,-0.94
2023-03-17T13:03:56.960Z,-1.20
2023-03-17T13:07:20.952Z,-1.12
2023-03-17T13:10:44.138Z,-1.25
2023-03-17T13:13:59.882Z,-1.29
2023-03-17T13:17:28.438Z,-1.37
2023-03-17T13:20:40.025Z,-1.39
2023-03-17T13:23:46.378Z,-1.51
2023-03-17T13:26:52.060Z,-1.52
2023-03-17T13:29:58.083Z,-1.59
2023-03-17T13:33:11.271Z,-1.69
2023-03-17T13:36:36.733Z,-1.68
2023-03-17T13:39:59.061Z,-1.73
2023-03-17T13:43:21.782Z,-1.69
2023-03-17T13:46:34.861Z,-1.78
2023-03-17T13:49:38.522Z,-1.75
2023-03-17T13:52:44.364Z,-1.75
2023-03-17T13:56:27.098Z,-1.76
2023-03-17T13:59:55.213Z,-1.71
2023-03-17T14:03:05.081Z,-1.82
2023-03-17T14:06:10.050Z,-1.94
2023-03-17T14:09:20.067Z,-1.82
2023-03-17T14:12:39.444Z,-1.78
2023-03-17T14:16:04.321Z,-1.96
2023-03-17T14:19:16.940Z,-2.05
2023-03-17T14:22:22.770Z,-2.12
2023-03-17T14:25:30.195Z,-2.10
2023-03-17T14:28:35.693Z,-1.86
2023-03-17T14:31:39.613Z,-1.99
2023-03-17T14:34:44.755Z,-2.13
2023-03-17T14:37:48.703Z,-1.91
2023-03-17T14:41:01.138Z,-2.05
2023-03-17T14:44:04.645Z,-2.04
2023-03-17T14:47:14.570Z,-2.09
2023-03-17T14:50:22.508Z,-2.24
2023-03-17T14:53:27.626Z,-2.28
2023-03-17T14:56:36.288Z,-2.15
2023-03-17T14:59:41.901Z,-2.25
2023-03-17T15:02:55.154Z,-2.54
2023-03-17T15:06:09.061Z,-2.60
2023-03-17T15:09:51.354Z,-2.64
2023-03-17T15:13:03.119Z,-2.79
2023-03-17T15:16:15.319Z,-2.76
2023-03-17T15:19:22.172Z,-2.75
2023-03-17T15:22:33.968Z,-2.64
2023-03-17T15:25:39.839Z,-2.73
2023-03-17T15:28:43.896Z,-2.66
2023-03-17T15:31:48.014Z,-2.77
2023-03-17T15:34:53.822Z,-2.83
2023-03-17T15:37:58.101Z,-2.88
2023-03-17T15:41:02.031Z,-2.91
2023-03-17T15:44:06.154Z,-2.93
2023-03-17T15:47:13.510Z,-2.87
2023-03-17T15:50:29.653Z,-2.76
2023-03-17T15:53:34.353Z,-2.75
2023-03-17T15:56:39.501Z,-2.73
2023-03-17T15:59:43.557Z,-2.85
2023-03-17T16:02:49.064Z,-2.66
2023-03-17T16:05:53.354Z,-2.54
2023-03-17T16:08:57.381Z,-2.70
2023-03-17T16:12:01.813Z,-2.72
2023-03-17T16:15:20.165Z,-2.70
2023-03-17T16:18:32.169Z,-2.91
2023-03-17T16:21:35.580Z,-2.82
2023-03-17T16:24:39.766Z,-2.83
2023-03-17T16:27:44.144Z,-3.40
2023-03-17T16:30:49.235Z,-3.65
2023-03-17T16:33:54.443Z,-3.75
2023-03-17T16:36:58.798Z,-3.75
2023-03-17T16:40:03.288Z,-3.83
2023-03-17T16:43:19.140Z,-3.80
2023-03-17T16:46:29.009Z,-3.86
2023-03-17T16:52:47.769Z,-4.00
2023-03-17T16:55:55.371Z,-4.24
2023-03-17T16:58:59.412Z,-4.23
2023-03-17T17:02:03.458Z,-4.55
2023-03-17T17:05:14.100Z,-4.62
2023-03-17T17:08:18.139Z,-4.77
2023-03-17T17:11:22.215Z,-5.02
2023-03-17T17:14:25.917Z,-5.07
2023-03-17T17:17:29.613Z,-5.02
2023-03-17T17:20:35.329Z,-5.00
2023-03-17T17:23:39.400Z,-5.23
2023-03-17T17:26:43.552Z,-5.36
2023-03-17T17:29:47.603Z,-5.44
2023-03-17T17:32:51.342Z,-5.67
2023-03-17T17:35:55.187Z,-5.82
2023-03-17T17:38:59.165Z,-5.81
2023-03-17T17:42:03.102Z,-5.88
2023-03-17T17:45:07.364Z,-5.94
2023-03-17T17:48:14.277Z,-6.04
2023-03-17T17:51:18.654Z,-6.13
2023-03-17T17:54:22.647Z,-6.34
2023-03-17T17:57:26.684Z,-6.25
2023-03-17T18:00:31.528Z,-6.19
2023-03-17T18:03:35.608Z,-6.30
2023-03-17T18:06:39.760Z,-6.26
2023-03-17T18:09:43.263Z,-6.24
2023-03-17T18:12:47.204Z,-6.54
2023-03-17T18:15:51.275Z,-6.29
2023-03-17T18:18:56.669Z,-6.36
2023-03-17T18:22:02.189Z,-6.55
2023-03-17T18:25:09.323Z,-6.40
2023-03-17T18:28:14.202Z,-6.33
2023-03-17T18:31:30.740Z,-6.45
2023-03-17T18:34:52.951Z,-6.48
2023-03-17T18:37:58.123Z,-6.72
2023-03-17T18:41:02.709Z,-6.95
2023-03-17T18:44:08.323Z,-6.84
2023-03-17T18:47:13.232Z,-6.94
2023-03-17T18:50:18.445Z,-7.10
2023-03-17T18:53:23.203Z,-7.39
2023-03-17T18:56:30.045Z,-7.40
2023-03-17T18:59:34.136Z,-7.52
2023-03-17T19:02:38.830Z,-7.65
2023-03-17T19:05:43.090Z,-7.63
2023-03-17T19:08:47.398Z,-7.74
2023-03-17T19:11:51.513Z,-7.99
2023-03-17T19:14:55.888Z,-7.95
2023-03-17T19:17:59.927Z,-7.82
2023-03-17T19:21:04.271Z,-7.90
2023-03-17T19:24:11.854Z,-8.14
2023-03-17T19:27:16.337Z,-8.06
2023-03-17T19:30:20.973Z,-8.06
2023-03-17T19:33:24.552Z,-7.82
2023-03-17T19:36:28.157Z,-7.89
2023-03-17T19:39:32.997Z,-7.72
2023-03-17T19:42:37.297Z,-8.04
2023-03-17T19:45:41.649Z,-8.38
2023-03-17T19:48:45.789Z,-8.33
2023-03-17T19:51:50.210Z,-8.52
2023-03-17T19:54:54.193Z,-8.38
2023-03-17T19:57:58.193Z,-8.53
2023-03-17T20:01:02.242Z,-8.45
2023-03-17T20:04:07.670Z,-8.47
2023-03-17T20:07:12.216Z,-8.76
2023-03-17T20:10:16.806Z,-8.88
2023-03-17T20:13:22.107Z,-8.80
2023-03-17T20:16:26.185Z,-8.82
2023-03-17T20:19:30.313Z,-9.05
2023-03-17T20:22:34.399Z,-8.94
2023-03-17T20:25:38.739Z,-8.80
2023-03-17T20:28:42.573Z,-8.82
2023-03-17T20:31:46.916Z,-9.11
2023-03-17T20:34:51.659Z,-8.94
2023-03-17T20:37:58.136Z,-8.97
2023-03-17T20:41:15.354Z,-9.23
2023-03-17T20:44:20.201Z,-9.27
2023-03-17T20:47:24.567Z,-9.16
2023-03-17T20:50:28.888Z,-9.19
2023-03-17T20:53:33.539Z,-9.26
2023-03-17T20:56:38.249Z,-9.07
2023-03-17T20:59:42.497Z,-9.16
2023-03-17T21:02:46.995Z,-9.36
2023-03-17T21:05:51.254Z,-9.49
2023-03-17T21:08:55.906Z,-9.40
2023-03-17T21:11:59.833Z,-9.44
2023-03-17T21:15:04.389Z,-9.52
2023-03-17T21:18:08.329Z,-9.37
2023-03-17T21:21:12.620Z,-9.39
2023-03-17T21:24:27.522Z,-9.41
2023-03-17T21:27:31.489Z,-9.64
2023-03-17T21:30:35.937Z,-9.56
2023-03-17T21:33:40.107Z,-9.27
2023-03-17T21:36:44.148Z,-9.09
2023-03-17T21:39:48.471Z,-9.11
2023-03-17T21:42:52.539Z,-8.77
2023-03-17T21:45:57.034Z,-9.20
2023-03-17T21:49:01.252Z,-8.83
2023-03-17T21:52:05.618Z,-8.69
2023-03-17T21:55:10.275Z,-9.02
2023-03-17T21:58:15.360Z,-8.77
2023-03-17T22:01:19.796Z,-8.88
2023-03-17T22:04:23.717Z,-8.75
2023-03-17T22:07:28.892Z,-8.30
2023-03-17T22:10:33.056Z,-7.45
2023-03-17T22:13:37.961Z,-6.87
2023-03-17T22:16:41.735Z,-6.41
2023-03-17T22:19:45.262Z,-4.82
2023-03-17T22:22:49.094Z,-2.31
2023-03-17T22:25:53.493Z,-1.00
2023-03-17T22:28:56.964Z,0.71
2023-03-17T22:32:00.732Z,1.69
2023-03-17T22:35:05.328Z,2.10
2023-03-17T22:38:13.877Z,1.70
2023-03-17T22:41:19.500Z,0.81
2023-03-17T22:44:23.563Z,1.23
2023-03-17T22:47:27.572Z,0.42
2023-03-17T22:50:31.931Z,-0.01
2023-03-17T22:53:39.398Z,-1.40
2023-03-17T22:56:43.053Z,-0.10
2023-03-17T22:59:47.108Z,1.46
2023-03-17T23:02:51.395Z,3.18
2023-03-17T23:05:57.822Z,3.93
2023-03-17T23:09:01.426Z,3.79
2023-03-17T23:12:05.844Z,3.65
2023-03-17T23:15:10.884Z,3.32
2023-03-17T23:18:14.959Z,4.44
2023-03-17T23:21:28.500Z,3.61
2023-03-17T23:24:33.040Z,2.28
2023-03-17T23:27:37.595Z,3.32
2023-03-17T23:30:42.311Z,2.92
2023-03-17T23:33:47.308Z,3.04
2023-03-17T23:36:51.499Z,3.95
2023-03-17T23:39:55.829Z,4.73
2023-03-17T23:42:59.811Z,5.29
2023-03-17T23:46:05.113Z,5.46
2023-03-17T23:49:09.272Z,5.91
2023-03-17T23:52:13.362Z,4.81
2023-03-17T23:55:18.243Z,4.03
2023-03-17T23:58:22.835Z,3.37
